Time;durP1;ratioP1;P1;durP2;ratioP2;P2;SDS_P1;SDS_P2;PMS_P1;PMS_P2;Temp;Humidity;BMP_temperature;BMP_pressure;BME280_temperature;BME280_humidity;BME280_pressure;Samples;Min_cycle;Max_cycle;Signal;HPM_P1;HPM_P2
2023/05/01 00:00:06;;;;;;;4.65;2.05;;;;;;;;;;6247502;22;20000;-77
2023/05/01 00:02:31;;;;;;;3.85;2.10;;;;;;;;;;6272886;22;20039;-77
2023/05/01 00:04:56;;;;;;;3.97;2.33;;;;;;;;;;6247469;22;20010;-77
2023/05/01 00:07:23;;;;;;;4.97;2.13;;;;;;;;;;6274669;22;19992;-76
2023/05/01 00:09:50;;;;;;;3.63;1.77;;;;;;;;;;6275718;23;19997;-77
2023/05/01 00:12:15;;;;;;;5.57;2.15;;;;;;;;;;6249054;23;19996;-76
2023/05/01 00:14:41;;;;;;;5.07;2.08;;;;;;;;;;6249231;23;20015;-76
2023/05/01 00:17:06;;;;;;;3.40;1.80;;;;;;;;;;6248192;23;19996;-77
2023/05/01 00:19:31;;;;;;;5.97;2.00;;;;;;;;;;6248374;23;19999;-77
2023/05/01 00:21:57;;;;;;;4.63;2.17;;;;;;;;;;6274664;22;20016;-78
2023/05/01 00:24:22;;;;;;;2.90;1.58;;;;;;;;;;6260378;22;20020;-77
2023/05/01 00:26:48;;;;;;;3.08;1.90;;;;;;;;;;6242800;23;20045;-77
2023/05/01 00:29:14;;;;;;;3.92;2.10;;;;;;;;;;6244069;23;20015;-77
2023/05/01 00:31:41;;;;;;;4.13;2.00;;;;;;;;;;6242736;23;20004;-77
2023/05/01 00:34:06;;;;;;;4.35;1.90;;;;;;;;;;6242877;23;20048;-77
2023/05/01 00:36:32;;;;;;;3.92;1.90;;;;;;;;;;6242346;23;19992;-76
2023/05/01 00:38:57;;;;;;;3.90;2.10;;;;;;;;;;6243905;23;19988;-77
2023/05/01 00:41:22;;;;;;;3.35;1.77;;;;;;;;;;6243919;23;20003;-76
2023/05/01 00:43:48;;;;;;;4.68;2.13;;;;;;;;;;6244627;23;20011;-76
2023/05/01 00:46:13;;;;;;;4.47;1.92;;;;;;;;;;6243006;23;19992;-77
2023/05/01 00:48:39;;;;;;;3.00;1.98;;;;;;;;;;6218437;23;20017;-77
2023/05/01 00:51:06;;;;;;;2.88;1.70;;;;;;;;;;6244003;23;19999;-77
2023/05/01 00:53:33;;;;;;;4.05;1.90;;;;;;;;;;6243343;23;20033;-76
2023/05/01 00:55:58;;;;;;;3.30;1.90;;;;;;;;;;6243224;23;19992;-76
2023/05/01 00:58:24;;;;;;;4.20;1.83;;;;;;;;;;6242453;23;20067;-77
2023/05/01 01:00:51;;;;;;;4.50;2.00;;;;;;;;;;6242237;23;20015;-76
2023/05/01 01:03:16;;;;;;;3.65;1.80;;;;;;;;;;6242506;23;20008;-76
2023/05/01 01:05:50;;;;;;;3.38;1.80;;;;;;;;;;6243278;23;20016;-76
2023/05/01 01:08:27;;;;;;;5.40;2.40;;;;;;;;;;6242647;23;20012;-77
2023/05/01 01:11:16;;;;;;;3.78;2.22;;;;;;;;;;6242023;23;20012;-77
2023/05/01 01:13:58;;;;;;;3.53;1.95;;;;;;;;;;6242034;23;20027;-77
2023/05/01 01:16:38;;;;;;;3.95;1.98;;;;;;;;;;6242164;23;20052;-77
2023/05/01 01:19:45;;;;;;;4.70;2.60;;;;;;;;;;6242173;23;20040;-77
2023/05/01 01:22:14;;;;;;;4.45;2.13;;;;;;;;;;6215945;23;20008;-77
2023/05/01 01:24:43;;;;;;;4.78;2.60;;;;;;;;;;6251082;23;20018;-76
2023/05/01 01:27:46;;;;;;;4.30;2.22;;;;;;;;;;6268475;23;20011;-78
2023/05/01 01:30:51;;;;;;;4.45;2.30;;;;;;;;;;6272114;22;20004;-76
2023/05/01 01:33:46;;;;;;;4.47;2.78;;;;;;;;;;6270486;23;20490;-77
2023/05/01 01:36:19;;;;;;;4.70;2.53;;;;;;;;;;6270513;23;20004;-77
2023/05/01 01:39:09;;;;;;;3.72;2.60;;;;;;;;;;6267876;23;19991;-76
2023/05/01 01:41:37;;;;;;;5.28;2.55;;;;;;;;;;6270200;22;19988;-76
2023/05/01 01:44:12;;;;;;;3.78;2.42;;;;;;;;;;6271062;22;20043;-78
2023/05/01 01:46:41;;;;;;;5.78;2.97;;;;;;;;;;6269875;22;20366;-76
2023/05/01 01:49:14;;;;;;;5.78;2.60;;;;;;;;;;6272746;22;20044;-77
2023/05/01 01:51:40;;;;;;;;;;;;;;;;;;6271778;22;19996;-77
2023/05/01 01:54:08;;;;;;;4.60;2.72;;;;;;;;;;6270169;22;19912;-77
2023/05/01 01:56:36;;;;;;;7.20;3.30;;;;;;;;;;6270810;23;19988;-76
2023/05/01 01:59:03;;;;;;;5.10;3.10;;;;;;;;;;6272509;22;20043;-77
2023/05/01 02:01:29;;;;;;;5.22;3.10;;;;;;;;;;6272178;22;19988;-77
2023/05/01 02:03:56;;;;;;;4.32;2.40;;;;;;;;;;6271061;22;20016;-76
2023/05/01 02:06:24;;;;;;;4.35;2.90;;;;;;;;;;6270629;22;20004;-77
2023/05/01 02:08:50;;;;;;;5.50;3.10;;;;;;;;;;6271818;23;20023;-76
2023/05/01 02:11:19;;;;;;;5.28;3.00;;;;;;;;;;6271035;22;19996;-76
2023/05/01 02:13:47;;;;;;;5.07;3.10;;;;;;;;;;6271772;22;19989;-77
2023/05/01 02:16:15;;;;;;;4.05;2.80;;;;;;;;;;6271030;23;20092;-77
2023/05/01 02:18:40;;;;;;;4.22;2.85;;;;;;;;;;6271606;22;20000;-76
2023/05/01 02:21:07;;;;;;;6.10;3.20;;;;;;;;;;6273131;22;19994;-77
2023/05/01 02:23:32;;;;;;;4.93;2.92;;;;;;;;;;6272510;22;19996;-77
2023/05/01 02:26:01;;;;;;;4.72;2.75;;;;;;;;;;6270924;22;20035;-76
2023/05/01 02:28:28;;;;;;;4.53;2.50;;;;;;;;;;6272652;22;20000;-77
2023/05/01 02:30:54;;;;;;;5.03;2.90;;;;;;;;;;6270759;22;20007;-77
2023/05/01 02:33:19;;;;;;;4.72;2.80;;;;;;;;;;6272265;22;20016;-77
2023/05/01 02:35:46;;;;;;;5.25;2.90;;;;;;;;;;6273745;22;20008;-77
2023/05/01 02:38:15;;;;;;;4.85;3.13;;;;;;;;;;6270856;22;19997;-77
2023/05/01 02:40:44;;;;;;;4.82;2.72;;;;;;;;;;6273840;22;20028;-76
2023/05/01 02:43:12;;;;;;;5.80;2.70;;;;;;;;;;6273790;22;19988;-76
2023/05/01 02:45:40;;;;;;;5.53;2.90;;;;;;;;;;6273057;22;19999;-77
2023/05/01 02:48:08;;;;;;;6.13;3.10;;;;;;;;;;6272244;23;19996;-76
2023/05/01 02:50:36;;;;;;;5.55;3.10;;;;;;;;;;6272242;22;20047;-77
2023/05/01 02:53:02;;;;;;;5.30;2.70;;;;;;;;;;6272642;22;20008;-79
2023/05/01 02:55:28;;;;;;;5.55;2.70;;;;;;;;;;6271933;23;19996;-77
2023/05/01 02:57:57;;;;;;;5.63;2.85;;;;;;;;;;6272485;22;19992;-77
2023/05/01 03:00:22;;;;;;;5.25;2.78;;;;;;;;;;6270238;23;20031;-77
2023/05/01 03:02:47;;;;;;;9.88;3.58;;;;;;;;;;6270726;22;20016;-76
2023/05/01 03:05:13;;;;;;;4.60;2.70;;;;;;;;;;6271308;22;20020;-78
2023/05/01 03:07:38;;;;;;;4.47;2.80;;;;;;;;;;6271632;23;20075;-77
2023/05/01 03:10:06;;;;;;;5.65;3.00;;;;;;;;;;6272861;22;20008;-77
2023/05/01 03:12:32;;;;;;;7.50;2.92;;;;;;;;;;6273812;22;20030;-76
2023/05/01 03:14:57;;;;;;;6.55;3.10;;;;;;;;;;6274168;22;19992;-78
2023/05/01 03:17:23;;;;;;;6.07;2.97;;;;;;;;;;6273807;23;20008;-76
2023/05/01 03:19:48;;;;;;;5.80;2.70;;;;;;;;;;6274683;22;20042;-78
2023/05/01 03:22:14;;;;;;;5.03;2.83;;;;;;;;;;6272381;23;20014;-77
2023/05/01 03:24:39;;;;;;;4.88;2.80;;;;;;;;;;6273100;23;20016;-77
2023/05/01 03:27:06;;;;;;;5.00;2.92;;;;;;;;;;6274052;22;20003;-77
2023/05/01 03:29:32;;;;;;;5.25;3.13;;;;;;;;;;6274926;22;19980;-76
2023/05/01 03:31:58;;;;;;;5.90;3.20;;;;;;;;;;6249262;23;20048;-77
2023/05/01 03:34:23;;;;;;;5.40;2.85;;;;;;;;;;6273369;22;20015;-77
2023/05/01 03:36:49;;;;;;;6.30;2.63;;;;;;;;;;6272743;23;20014;-77
2023/05/01 03:39:14;;;;;;;5.57;3.00;;;;;;;;;;6274056;22;19988;-77
2023/05/01 03:41:40;;;;;;;5.97;3.08;;;;;;;;;;6273510;22;20016;-77
2023/05/01 03:44:05;;;;;;;4.88;2.90;;;;;;;;;;6273069;22;20027;-77
2023/05/01 03:46:30;;;;;;;8.52;2.90;;;;;;;;;;6274182;22;19996;-76
2023/05/01 03:48:56;;;;;;;6.22;3.20;;;;;;;;;;6273814;22;20024;-77
2023/05/01 03:51:21;;;;;;;5.75;3.20;;;;;;;;;;6273160;22;19992;-76
2023/05/01 03:53:46;;;;;;;5.47;3.17;;;;;;;;;;6272667;22;20000;-77
2023/05/01 03:56:12;;;;;;;5.40;2.90;;;;;;;;;;6273311;22;20023;-78
2023/05/01 03:58:37;;;;;;;5.72;3.00;;;;;;;;;;6273676;22;20015;-76
2023/05/01 04:01:03;;;;;;;8.02;3.05;;;;;;;;;;6244939;22;20000;-76
2023/05/01 04:03:28;;;;;;;7.10;3.25;;;;;;;;;;6273588;23;19988;-78
2023/05/01 04:05:54;;;;;;;6.22;2.75;;;;;;;;;;6272814;22;19999;-76
2023/05/01 04:08:19;;;;;;;6.35;3.15;;;;;;;;;;6272813;22;19988;-76
2023/05/01 04:10:45;;;;;;;5.40;2.90;;;;;;;;;;6271473;22;20040;-76
2023/05/01 04:13:10;;;;;;;7.40;3.42;;;;;;;;;;6271925;22;20039;-77
2023/05/01 04:15:37;;;;;;;6.50;3.60;;;;;;;;;;6272747;22;20014;-76
2023/05/01 04:18:03;;;;;;;5.63;3.10;;;;;;;;;;6274760;22;20023;-77
2023/05/01 04:20:28;;;;;;;6.38;3.20;;;;;;;;;;6272716;22;20016;-76
2023/05/01 04:22:53;;;;;;;5.78;3.40;;;;;;;;;;6247457;22;19999;-76
2023/05/01 04:25:19;;;;;;;7.55;3.60;;;;;;;;;;6274364;22;20003;-77
2023/05/01 04:27:45;;;;;;;5.28;3.45;;;;;;;;;;6275228;22;20062;-77
2023/05/01 04:30:10;;;;;;;6.95;3.50;;;;;;;;;;6273767;22;20027;-77
2023/05/01 04:32:36;;;;;;;7.15;3.30;;;;;;;;;;6273818;23;20016;-77
2023/05/01 04:35:01;;;;;;;7.88;3.70;;;;;;;;;;6274004;22;19999;-77
2023/05/01 04:37:26;;;;;;;6.97;3.50;;;;;;;;;;6273836;22;20008;-78
2023/05/01 04:39:52;;;;;;;5.75;3.47;;;;;;;;;;6273679;22;20000;-76
2023/05/01 04:42:17;;;;;;;5.40;3.50;;;;;;;;;;6273007;22;20064;-77
2023/05/01 04:44:44;;;;;;;7.15;3.53;;;;;;;;;;6272164;23;20008;-77
2023/05/01 04:47:10;;;;;;;6.13;3.15;;;;;;;;;;6272578;22;20004;-78
2023/05/01 04:49:35;;;;;;;5.30;2.85;;;;;;;;;;6272274;22;20007;-77
2023/05/01 04:52:00;;;;;;;5.85;3.10;;;;;;;;;;6273782;22;20019;-77
2023/05/01 04:54:26;;;;;;;5.45;3.13;;;;;;;;;;6271733;22;20019;-77
2023/05/01 04:56:52;;;;;;;5.78;3.38;;;;;;;;;;6271733;22;20000;-76
2023/05/01 04:59:17;;;;;;;5.85;3.67;;;;;;;;;;6273904;22;20012;-77
2023/05/01 05:01:43;;;;;;;4.97;3.20;;;;;;;;;;6271735;23;20016;-77
2023/05/01 05:04:08;;;;;;;6.07;3.50;;;;;;;;;;6269053;22;19992;-76
2023/05/01 05:06:34;;;;;;;7.63;3.70;;;;;;;;;;6271526;22;20019;-76
2023/05/01 05:08:59;;;;;;;5.63;3.47;;;;;;;;;;6270634;22;20039;-77
2023/05/01 05:11:25;;;;;;;6.40;3.22;;;;;;;;;;6272273;22;20064;-77
2023/05/01 05:13:51;;;;;;;5.85;3.28;;;;;;;;;;6269747;23;20087;-77
2023/05/01 05:16:16;;;;;;;6.00;3.50;;;;;;;;;;6269750;22;20019;-77
2023/05/01 05:18:42;;;;;;;6.00;3.50;;;;;;;;;;6272123;22;19992;-77
2023/05/01 05:21:09;;;;;;;5.63;3.25;;;;;;;;;;6269059;22;20022;-76
2023/05/01 05:23:35;;;;;;;5.40;3.63;;;;;;;;;;6270501;22;20056;-76
2023/05/01 05:26:00;;;;;;;7.70;3.10;;;;;;;;;;6270801;22;20000;-76
2023/05/01 05:28:27;;;;;;;7.00;3.50;;;;;;;;;;6271678;22;19992;-77
2023/05/01 05:30:52;;;;;;;6.78;3.40;;;;;;;;;;6271815;22;19988;-76
2023/05/01 05:33:18;;;;;;;6.70;3.50;;;;;;;;;;6273441;22;20000;-77
2023/05/01 05:35:43;;;;;;;5.75;3.47;;;;;;;;;;6272468;22;20027;-77
2023/05/01 05:38:08;;;;;;;6.28;3.63;;;;;;;;;;6271764;23;20004;-77
2023/05/01 05:40:34;;;;;;;7.03;4.13;;;;;;;;;;6273592;22;20031;-76
2023/05/01 05:42:59;;;;;;;6.20;3.67;;;;;;;;;;6270857;22;20008;-76
2023/05/01 05:45:24;;;;;;;7.80;3.70;;;;;;;;;;6272741;23;20043;-79
2023/05/01 05:47:50;;;;;;;6.80;3.35;;;;;;;;;;6271069;22;20007;-77
2023/05/01 05:50:15;;;;;;;6.32;3.45;;;;;;;;;;6271390;22;20010;-77
2023/05/01 05:52:40;;;;;;;5.82;3.25;;;;;;;;;;6271409;22;20022;-77
2023/05/01 05:55:06;;;;;;;6.85;3.70;;;;;;;;;;6271130;22;19996;-76
2023/05/01 05:57:33;;;;;;;5.53;3.20;;;;;;;;;;6269027;22;19992;-76
2023/05/01 05:59:58;;;;;;;5.47;3.40;;;;;;;;;;6270978;22;20083;-77
2023/05/01 06:02:24;;;;;;;7.43;3.45;;;;;;;;;;6269382;22;20019;-76
2023/05/01 06:04:49;;;;;;;6.28;3.70;;;;;;;;;;6268189;23;20049;-76
2023/05/01 06:07:15;;;;;;;5.72;3.45;;;;;;;;;;6265806;23;20040;-76
2023/05/01 06:09:40;;;;;;;8.20;3.60;;;;;;;;;;6270423;22;19989;-76
2023/05/01 06:12:06;;;;;;;7.13;3.40;;;;;;;;;;6273224;22;20064;-78
2023/05/01 06:14:32;;;;;;;7.93;3.83;;;;;;;;;;6272675;22;20008;-77
2023/05/01 06:16:57;;;;;;;5.38;2.95;;;;;;;;;;6271375;23;20016;-77
2023/05/01 06:19:22;;;;;;;5.35;3.17;;;;;;;;;;6271820;23;20002;-78
2023/05/01 06:21:48;;;;;;;5.72;3.30;;;;;;;;;;6271140;22;20031;-76
2023/05/01 06:24:14;;;;;;;7.65;3.42;;;;;;;;;;6271624;22;20015;-76
2023/05/01 06:26:40;;;;;;;6.15;3.55;;;;;;;;;;6271561;22;19999;-77
2023/05/01 06:29:05;;;;;;;6.20;3.45;;;;;;;;;;6270580;23;19992;-77
2023/05/01 06:31:31;;;;;;;7.63;3.92;;;;;;;;;;6271001;22;20003;-76
2023/05/01 06:33:56;;;;;;;8.77;4.13;;;;;;;;;;6269184;23;20012;-77
2023/05/01 06:36:21;;;;;;;6.57;3.70;;;;;;;;;;6268945;22;19992;-76
2023/05/01 06:38:48;;;;;;;5.57;3.60;;;;;;;;;;6270252;22;20011;-76
2023/05/01 06:41:17;;;;;;;10.88;4.13;;;;;;;;;;6269916;22;20014;-77
2023/05/01 06:43:42;;;;;;;5.30;3.25;;;;;;;;;;6270348;22;20009;-77
2023/05/01 06:46:07;;;;;;;7.05;3.28;;;;;;;;;;6269665;23;20008;-77
2023/05/01 06:48:33;;;;;;;7.03;3.25;;;;;;;;;;6271703;23;20000;-76
2023/05/01 06:50:58;;;;;;;8.57;3.90;;;;;;;;;;6273166;22;19996;-77
2023/05/01 06:53:24;;;;;;;6.05;3.70;;;;;;;;;;6273576;22;20007;-76
2023/05/01 06:55:49;;;;;;;5.88;3.63;;;;;;;;;;6273866;22;20038;-77
2023/05/01 06:58:15;;;;;;;9.40;4.25;;;;;;;;;;6273936;22;20044;-78
2023/05/01 07:00:40;;;;;;;6.90;3.97;;;;;;;;;;6270482;23;20004;-76
2023/05/01 07:03:05;;;;;;;7.03;4.10;;;;;;;;;;6272201;23;19992;-77
2023/05/01 07:05:31;;;;;;;6.13;4.35;;;;;;;;;;6271337;22;20018;-76
2023/05/01 07:07:56;;;;;;;9.00;4.57;;;;;;;;;;6270958;23;20004;-76
2023/05/01 07:10:21;;;;;;;7.70;4.03;;;;;;;;;;6273687;22;20005;-77
2023/05/01 07:12:47;;;;;;;8.60;4.22;;;;;;;;;;6271502;23;20007;-77
2023/05/01 07:15:15;;;;;;;7.13;4.20;;;;;;;;;;6273915;22;20043;-77
2023/05/01 07:17:41;;;;;;;7.25;4.38;;;;;;;;;;6271145;23;20012;-77
2023/05/01 07:20:07;;;;;;;7.88;4.25;;;;;;;;;;6272904;23;20004;-77
2023/05/01 07:22:32;;;;;;;7.15;4.18;;;;;;;;;;6273076;22;20107;-76
2023/05/01 07:25:00;;;;;;;7.72;4.18;;;;;;;;;;6275074;22;20038;-77
2023/05/01 07:27:25;;;;;;;6.32;4.10;;;;;;;;;;6268813;22;20031;-77
2023/05/01 07:29:51;;;;;;;7.45;4.28;;;;;;;;;;6270476;23;20008;-77
2023/05/01 07:32:16;;;;;;;10.73;4.30;;;;;;;;;;6272038;23;19993;-76
2023/05/01 07:34:41;;;;;;;8.88;4.25;;;;;;;;;;6272097;23;20003;-77
2023/05/01 07:37:07;;;;;;;7.45;4.30;;;;;;;;;;6270900;23;20023;-77
2023/05/01 07:39:32;;;;;;;8.07;4.40;;;;;;;;;;6268135;23;20012;-77
2023/05/01 07:41:57;;;;;;;8.63;4.40;;;;;;;;;;6269145;23;19996;-77
2023/05/01 07:44:23;;;;;;;6.07;4.50;;;;;;;;;;6273651;22;20008;-77
2023/05/01 07:46:48;;;;;;;7.70;4.65;;;;;;;;;;6270098;22;20019;-77
2023/05/01 07:49:13;;;;;;;7.18;4.43;;;;;;;;;;6268911;22;20035;-76
2023/05/01 07:51:39;;;;;;;6.40;4.30;;;;;;;;;;6267407;23;19996;-76
2023/05/01 07:54:04;;;;;;;9.25;4.45;;;;;;;;;;6268363;22;20012;-77
2023/05/01 07:56:30;;;;;;;6.40;4.47;;;;;;;;;;6270402;23;20030;-78
2023/05/01 07:58:56;;;;;;;8.07;4.70;;;;;;;;;;6268210;22;19998;-77
2023/05/01 08:01:22;;;;;;;7.82;4.57;;;;;;;;;;6268380;23;20000;-78
2023/05/01 08:03:47;;;;;;;10.18;4.78;;;;;;;;;;6268172;22;20004;-77
2023/05/01 08:06:12;;;;;;;7.82;4.55;;;;;;;;;;6269289;23;20016;-77
2023/05/01 08:08:38;;;;;;;8.50;4.55;;;;;;;;;;6269784;22;20079;-78
2023/05/01 08:11:03;;;;;;;7.63;4.68;;;;;;;;;;6269826;22;20064;-77
2023/05/01 08:13:29;;;;;;;7.03;4.80;;;;;;;;;;6273561;22;20039;-76
2023/05/01 08:15:54;;;;;;;7.97;4.78;;;;;;;;;;6272449;22;20030;-77
2023/05/01 08:18:19;;;;;;;7.13;4.55;;;;;;;;;;6271845;22;20030;-77
2023/05/01 08:20:48;;;;;;;7.30;4.45;;;;;;;;;;6273112;22;20012;-77
2023/05/01 08:23:16;;;;;;;8.27;4.93;;;;;;;;;;6274042;22;20018;-78
2023/05/01 08:25:43;;;;;;;6.90;4.80;;;;;;;;;;6272343;23;19999;-76
2023/05/01 08:28:09;;;;;;;9.55;4.40;;;;;;;;;;6271965;22;20003;-77
2023/05/01 08:30:35;;;;;;;9.18;4.78;;;;;;;;;;6256053;23;20004;-73
2023/05/01 08:33:00;;;;;;;10.07;5.00;;;;;;;;;;6246323;23;20014;-74
2023/05/01 08:35:26;;;;;;;8.98;4.90;;;;;;;;;;6245647;23;20011;-73
2023/05/01 08:37:51;;;;;;;8.40;5.03;;;;;;;;;;6245454;23;20014;-74
2023/05/01 08:40:16;;;;;;;8.18;4.88;;;;;;;;;;6244500;22;20034;-73
2023/05/01 08:42:42;;;;;;;9.93;5.18;;;;;;;;;;6245449;23;20505;-73
2023/05/01 08:45:08;;;;;;;8.07;4.90;;;;;;;;;;6243468;23;20030;-73
2023/05/01 08:47:38;;;;;;;10.13;5.30;;;;;;;;;;6246280;22;20011;-73
2023/05/01 08:50:08;;;;;;;9.00;5.00;;;;;;;;;;6247971;22;20019;-73
2023/05/01 08:52:35;;;;;;;8.77;4.70;;;;;;;;;;6246458;22;20001;-74
2023/05/01 08:55:02;;;;;;;7.05;4.55;;;;;;;;;;6244847;23;20012;-73
2023/05/01 08:57:29;;;;;;;9.32;5.00;;;;;;;;;;6244280;23;20015;-73
2023/05/01 08:59:56;;;;;;;8.30;4.72;;;;;;;;;;6246884;22;20004;-74
2023/05/01 09:02:23;;;;;;;9.00;5.10;;;;;;;;;;6242511;23;20062;-73
2023/05/01 09:04:50;;;;;;;7.13;4.28;;;;;;;;;;6246102;22;20000;-74
2023/05/01 09:07:15;;;;;;;8.68;4.55;;;;;;;;;;6243912;22;20011;-76
2023/05/01 09:09:42;;;;;;;10.27;5.10;;;;;;;;;;6244562;23;20008;-75
2023/05/01 09:12:17;;;;;;;12.98;4.63;;;;;;;;;;6245766;22;20012;-74
2023/05/01 09:14:44;;;;;;;8.55;4.30;;;;;;;;;;6244070;23;20012;-74
2023/05/01 09:17:10;;;;;;;7.60;4.75;;;;;;;;;;6242163;23;20015;-74
2023/05/01 09:19:35;;;;;;;6.45;3.92;;;;;;;;;;6243511;23;20004;-73
2023/05/01 09:22:00;;;;;;;6.82;4.15;;;;;;;;;;6241191;23;20346;-73
2023/05/01 09:24:26;;;;;;;8.55;5.45;;;;;;;;;;6242810;22;20457;-74
2023/05/01 09:26:51;;;;;;;10.05;5.47;;;;;;;;;;6244174;23;20012;-73
2023/05/01 09:29:36;;;;;;;8.88;4.75;;;;;;;;;;6245405;23;20016;-73
2023/05/01 09:32:11;;;;;;;7.90;4.65;;;;;;;;;;6244324;23;20018;-76
2023/05/01 09:34:37;;;;;;;5.47;3.92;;;;;;;;;;6245715;22;20487;-74
2023/05/01 09:37:02;;;;;;;9.10;5.15;;;;;;;;;;6244641;23;20031;-74
2023/05/01 09:39:28;;;;;;;11.15;5.00;;;;;;;;;;6244607;23;20008;-74
2023/05/01 09:41:54;;;;;;;7.72;5.50;;;;;;;;;;6243925;23;20437;-74
2023/05/01 09:44:19;;;;;;;8.23;5.18;;;;;;;;;;6246333;22;20022;-74
2023/05/01 09:46:45;;;;;;;7.53;5.18;;;;;;;;;;6245779;22;20375;-74
2023/05/01 09:49:10;;;;;;;9.65;5.13;;;;;;;;;;6244791;22;20008;-74
2023/05/01 09:51:35;;;;;;;8.38;4.95;;;;;;;;;;6232408;22;20003;-75
2023/05/01 09:54:03;;;;;;;7.43;4.75;;;;;;;;;;6235347;23;20004;-74
2023/05/01 09:56:31;;;;;;;11.32;5.20;;;;;;;;;;6235495;23;20418;-76
2023/05/01 09:58:58;;;;;;;8.43;4.70;;;;;;;;;;6236857;22;20007;-76
2023/05/01 10:01:41;;;;;;;8.82;4.78;;;;;;;;;;6234597;23;20040;-74
2023/05/01 10:04:10;;;;;;;9.50;5.83;;;;;;;;;;6235753;22;20418;-75
2023/05/01 10:06:36;;;;;;;10.23;5.70;;;;;;;;;;6238516;22;20173;-75
2023/05/01 10:09:03;;;;;;;8.23;5.22;;;;;;;;;;6238336;22;20037;-75
2023/05/01 10:11:29;;;;;;;8.50;4.88;;;;;;;;;;6235787;23;20033;-77
2023/05/01 10:14:07;;;;;;;7.80;5.38;;;;;;;;;;6236330;23;20011;-75
2023/05/01 10:16:33;;;;;;;8.38;5.10;;;;;;;;;;6236078;23;20008;-76
2023/05/01 10:18:59;;;;;;;8.77;5.00;;;;;;;;;;6238476;22;20004;-75
2023/05/01 10:21:26;;;;;;;8.60;5.35;;;;;;;;;;6237569;22;20047;-76
2023/05/01 10:23:53;;;;;;;10.38;5.45;;;;;;;;;;6235599;23;20004;-74
2023/05/01 10:26:19;;;;;;;7.07;4.85;;;;;;;;;;6238466;22;20079;-76
2023/05/01 10:28:47;;;;;;;9.90;4.63;;;;;;;;;;6234475;23;20535;-75
2023/05/01 10:31:14;;;;;;;7.78;4.63;;;;;;;;;;6234392;23;20107;-75
2023/05/01 10:33:40;;;;;;;7.30;4.70;;;;;;;;;;6237027;22;20235;-75
2023/05/01 10:36:11;;;;;;;6.90;4.70;;;;;;;;;;6234622;23;20004;-77
2023/05/01 10:38:37;;;;;;;8.60;4.85;;;;;;;;;;6238755;23;20419;-75
2023/05/01 10:41:02;;;;;;;8.43;4.10;;;;;;;;;;6235239;23;20004;-74
2023/05/01 10:43:31;;;;;;;7.68;4.55;;;;;;;;;;6237714;22;20008;-76
2023/05/01 10:46:06;;;;;;;7.93;4.78;;;;;;;;;;6237510;22;20015;-75
2023/05/01 10:48:38;;;;;;;9.25;5.13;;;;;;;;;;6236519;23;20291;-76
2023/05/01 10:51:10;;;;;;;9.70;5.10;;;;;;;;;;6238737;22;20343;-77
2023/05/01 10:53:36;;;;;;;8.90;5.47;;;;;;;;;;6237770;23;20008;-75
2023/05/01 10:56:04;;;;;;;9.35;5.63;;;;;;;;;;6237423;22;20393;-74
2023/05/01 10:59:03;;;;;;;8.82;4.93;;;;;;;;;;6237966;22;20038;-74
2023/05/01 11:01:39;;;;;;;8.15;5.15;;;;;;;;;;6231919;22;20012;-77
2023/05/01 11:04:26;;;;;;;8.68;5.78;;;;;;;;;;6235663;22;20004;-76
2023/05/01 11:07:00;;;;;;;10.00;5.78;;;;;;;;;;6238982;23;20346;-74
2023/05/01 11:09:48;;;;;;;9.43;5.80;;;;;;;;;;6236892;23;20090;-75
2023/05/01 11:12:34;;;;;;;9.32;5.22;;;;;;;;;;6237250;23;20012;-74
2023/05/01 11:15:02;;;;;;;7.70;5.00;;;;;;;;;;6225937;22;20008;-74
2023/05/01 11:17:40;;;;;;;9.82;5.72;;;;;;;;;;6236014;23;20449;-78
2023/05/01 11:20:06;;;;;;;9.57;5.18;;;;;;;;;;6236934;23;20070;-76
2023/05/01 11:22:32;;;;;;;8.90;4.90;;;;;;;;;;6236467;22;20008;-74
2023/05/01 11:24:59;;;;;;;8.00;4.35;;;;;;;;;;6236873;22;20047;-75
2023/05/01 11:27:25;;;;;;;7.30;4.00;;;;;;;;;;6231970;22;20004;-73
2023/05/01 11:29:52;;;;;;;8.35;3.72;;;;;;;;;;6233739;22;20015;-77
2023/05/01 11:32:23;;;;;;;6.40;3.97;;;;;;;;;;6235847;23;20525;-76
2023/05/01 11:34:50;;;;;;;6.13;3.75;;;;;;;;;;6236293;23;20352;-74
2023/05/01 11:37:15;;;;;;;6.45;3.75;;;;;;;;;;6212071;23;20008;-75
2023/05/01 11:39:51;;;;;;;6.70;4.00;;;;;;;;;;6235021;23;20038;-77
2023/05/01 11:42:19;;;;;;;7.57;4.00;;;;;;;;;;6237940;22;20053;-76
2023/05/01 11:45:05;;;;;;;6.97;3.80;;;;;;;;;;6236593;23;20004;-76
2023/05/01 11:47:33;;;;;;;6.05;3.65;;;;;;;;;;6238262;22;20011;-74
2023/05/01 11:50:00;;;;;;;5.65;4.10;;;;;;;;;;6237688;23;20014;-77
2023/05/01 11:52:27;;;;;;;6.50;4.15;;;;;;;;;;6239455;22;20004;-75
2023/05/01 11:54:53;;;;;;;6.20;3.95;;;;;;;;;;6237984;22;20008;-76
2023/05/01 11:57:19;;;;;;;6.70;4.30;;;;;;;;;;6237405;23;20574;-75
2023/05/01 11:59:47;;;;;;;9.02;4.25;;;;;;;;;;6239969;22;20008;-75
2023/05/01 12:02:19;;;;;;;6.65;3.75;;;;;;;;;;6238160;22;20011;-76
2023/05/01 12:04:44;;;;;;;5.97;3.78;;;;;;;;;;6237133;22;20015;-73
2023/05/01 12:07:22;;;;;;;7.47;4.20;;;;;;;;;;6233652;23;20008;-74
2023/05/01 12:09:49;;;;;;;6.47;3.50;;;;;;;;;;6235525;22;20008;-73
2023/05/01 12:12:15;;;;;;;8.35;3.35;;;;;;;;;;6233535;23;20011;-74
2023/05/01 12:14:41;;;;;;;10.15;3.53;;;;;;;;;;6234750;23;20198;-75
2023/05/01 12:17:08;;;;;;;7.15;3.38;;;;;;;;;;6234214;22;20011;-75
2023/05/01 12:19:34;;;;;;;6.57;3.15;;;;;;;;;;6208581;23;20447;-73
2023/05/01 12:22:09;;;;;;;7.55;3.20;;;;;;;;;;6234759;23;20000;-74
2023/05/01 12:24:36;;;;;;;8.52;3.08;;;;;;;;;;6235555;22;20035;-74
2023/05/01 12:27:02;;;;;;;6.25;2.90;;;;;;;;;;6235162;23;20004;-77
2023/05/01 12:29:40;;;;;;;5.32;3.08;;;;;;;;;;6234960;22;20744;-77
2023/05/01 12:32:06;;;;;;;6.35;3.15;;;;;;;;;;6234162;22;20032;-75
2023/05/01 12:34:32;;;;;;;9.50;4.32;;;;;;;;;;6233193;23;20016;-75
2023/05/01 12:36:58;;;;;;;6.38;4.43;;;;;;;;;;6237814;23;20563;-73
2023/05/01 12:39:25;;;;;;;7.38;3.95;;;;;;;;;;6238652;22;20008;-75
2023/05/01 12:41:51;;;;;;;7.68;4.53;;;;;;;;;;6237010;22;20008;-73
2023/05/01 12:44:23;;;;;;;6.70;4.22;;;;;;;;;;6210160;23;20065;-72
2023/05/01 12:47:01;;;;;;;6.78;4.20;;;;;;;;;;6237425;22;20267;-74
2023/05/01 12:49:27;;;;;;;8.68;5.13;;;;;;;;;;6236049;22;20496;-74
2023/05/01 12:51:58;;;;;;;8.80;4.95;;;;;;;;;;6235995;23;20014;-74
2023/05/01 12:54:30;;;;;;;7.05;4.97;;;;;;;;;;6234699;23;20506;-74
2023/05/01 12:57:08;;;;;;;7.75;4.85;;;;;;;;;;6236349;22;20010;-75
2023/05/01 12:59:36;;;;;;;8.55;5.47;;;;;;;;;;6238863;22;20039;-75
2023/05/01 13:02:10;;;;;;;10.40;5.68;;;;;;;;;;6240170;22;20004;-73
2023/05/01 13:04:36;;;;;;;10.68;5.38;;;;;;;;;;6237020;22;20004;-73
2023/05/01 13:07:15;;;;;;;10.77;5.45;;;;;;;;;;6241074;22;20031;-73
2023/05/01 13:09:57;;;;;;;9.27;5.07;;;;;;;;;;6240784;23;20059;-73
2023/05/01 13:12:26;;;;;;;8.10;5.10;;;;;;;;;;6235035;23;20070;-76
2023/05/01 13:14:53;;;;;;;9.10;5.07;;;;;;;;;;6233108;23;20030;-75
2023/05/01 13:17:30;;;;;;;8.43;4.97;;;;;;;;;;6235718;23;20011;-73
2023/05/01 13:20:00;;;;;;;8.05;4.85;;;;;;;;;;6231961;23;20047;-73
2023/05/01 13:22:29;;;;;;;9.68;4.78;;;;;;;;;;6234406;23;20007;-73
2023/05/01 13:24:55;;;;;;;8.98;4.68;;;;;;;;;;6233716;23;20024;-74
2023/05/01 13:27:22;;;;;;;7.88;4.63;;;;;;;;;;6235978;23;20015;-74
2023/05/01 13:29:56;;;;;;;10.52;5.22;;;;;;;;;;6235746;23;20452;-75
2023/05/01 13:32:23;;;;;;;9.48;4.80;;;;;;;;;;6235956;22;20093;-74
2023/05/01 13:34:49;;;;;;;8.52;4.28;;;;;;;;;;6237382;22;20015;-73
2023/05/01 13:37:15;;;;;;;8.45;4.25;;;;;;;;;;6238880;22;20066;-74
2023/05/01 13:39:45;;;;;;;9.10;4.88;;;;;;;;;;6239778;22;20338;-74
2023/05/01 13:42:12;;;;;;;9.10;4.97;;;;;;;;;;6240905;22;20420;-74
2023/05/01 13:44:49;;;;;;;7.30;4.30;;;;;;;;;;6238021;22;20011;-74
2023/05/01 13:47:16;;;;;;;8.05;4.32;;;;;;;;;;6239805;22;20004;-73
2023/05/01 13:49:41;;;;;;;9.30;4.65;;;;;;;;;;6236744;23;20457;-73
2023/05/01 13:52:11;;;;;;;10.52;4.50;;;;;;;;;;6235972;23;20008;-76
2023/05/01 13:54:40;;;;;;;9.40;4.70;;;;;;;;;;6235549;23;20019;-75
2023/05/01 13:57:06;;;;;;;8.00;4.38;;;;;;;;;;6244532;23;20007;-73
2023/05/01 13:59:38;;;;;;;10.75;4.28;;;;;;;;;;6244987;23;20102;-73
2023/05/01 14:02:23;;;;;;;11.30;4.80;;;;;;;;;;6241458;22;20049;-74
2023/05/01 14:04:49;;;;;;;10.45;4.30;;;;;;;;;;6240204;22;20012;-74
2023/05/01 14:07:17;;;;;;;7.50;4.90;;;;;;;;;;6243585;22;20061;-73
2023/05/01 14:09:45;;;;;;;10.05;4.95;;;;;;;;;;6242011;23;20167;-73
2023/05/01 14:12:13;;;;;;;9.00;4.68;;;;;;;;;;6242597;22;20430;-75
2023/05/01 14:14:44;;;;;;;7.65;4.53;;;;;;;;;;6240214;23;20078;-74
2023/05/01 14:17:09;;;;;;;8.02;4.82;;;;;;;;;;6240906;22;20023;-74
2023/05/01 14:19:36;;;;;;;8.98;5.20;;;;;;;;;;6237128;23;20505;-74
2023/05/01 14:22:02;;;;;;;8.15;4.65;;;;;;;;;;6240305;22;20008;-74
2023/05/01 14:24:27;;;;;;;9.55;4.65;;;;;;;;;;6238984;22;20019;-73
2023/05/01 14:26:53;;;;;;;9.30;4.80;;;;;;;;;;6231275;23;20486;-75
2023/05/01 14:29:25;;;;;;;9.60;4.70;;;;;;;;;;6233010;22;20008;-75
2023/05/01 14:31:51;;;;;;;11.90;4.88;;;;;;;;;;6231817;23;20015;-77
2023/05/01 14:34:17;;;;;;;8.20;4.65;;;;;;;;;;6233754;23;20008;-75
2023/05/01 14:36:42;;;;;;;8.82;4.47;;;;;;;;;;6234407;22;20004;-73
2023/05/01 14:39:08;;;;;;;9.23;4.88;;;;;;;;;;6235131;22;20012;-75
2023/05/01 14:41:37;;;;;;;8.18;4.82;;;;;;;;;;6235044;22;20004;-77
2023/05/01 14:44:04;;;;;;;8.52;4.90;;;;;;;;;;6232267;23;20011;-75
2023/05/01 14:46:35;;;;;;;8.63;4.97;;;;;;;;;;6233472;23;20042;-74